Time;durP1;ratioP1;P1;durP2;ratioP2;P2;SDS_P1;SDS_P2;PMS_P1;PMS_P2;Temp;Humidity;BMP_temperature;BMP_pressure;BME280_temperature;BME280_humidity;BME280_pressure;Samples;Min_cycle;Max_cycle;Signal;HPM_P1;HPM_P2
2023/07/08 00:01:36;;;;;;;;;;;20.70;99.90;;;;;;5085410;28;19908;-83
2023/07/08 00:04:03;;;;;;;;;;;20.80;99.90;;;;;;5097355;28;19908;-84
2023/07/08 00:06:29;;;;;;;;;;;20.80;99.90;;;;;;5084074;28;19913;-84
2023/07/08 00:08:55;;;;;;;;;;;20.90;99.90;;;;;;5079844;28;19968;-85
2023/07/08 00:11:21;;;;;;;;;;;20.70;99.90;;;;;;5079791;28;19946;-84
2023/07/08 00:13:47;;;;;;;;;;;20.80;99.90;;;;;;5077878;28;19917;-83
2023/07/08 00:16:14;;;;;;;;;;;20.80;99.90;;;;;;5074093;28;19913;-83
2023/07/08 00:18:40;;;;;;;;;;;20.80;99.90;;;;;;5077161;28;19908;-82
2023/07/08 00:21:14;;;;;;;;;;;20.60;99.90;;;;;;5080181;28;19915;-85
2023/07/08 00:23:41;;;;;;;;;;;20.80;99.90;;;;;;5076423;28;20369;-84
2023/07/08 00:26:25;;;;;;;;;;;20.70;99.90;;;;;;5075792;28;19912;-83
2023/07/08 00:28:52;;;;;;;;;;;20.50;99.90;;;;;;5076060;28;19908;-84
2023/07/08 00:31:23;;;;;;;;;;;20.60;99.90;;;;;;5076233;28;19917;-83
2023/07/08 00:33:55;;;;;;;;;;;20.50;99.90;;;;;;5061982;28;19959;-84
2023/07/08 00:36:21;;;;;;;;;;;20.60;99.90;;;;;;5051556;28;20290;-84
2023/07/08 00:38:46;;;;;;;;;;;20.50;99.90;;;;;;5067388;28;19908;-83
2023/07/08 00:41:16;;;;;;;;;;;20.40;99.90;;;;;;5067655;28;19963;-82
2023/07/08 00:43:47;;;;;;;;;;;20.50;99.90;;;;;;5074668;28;19915;-83
2023/07/08 00:46:32;;;;;;;;;;;20.60;99.90;;;;;;5060489;28;19915;-84
2023/07/08 00:49:06;;;;;;;;;;;20.50;99.90;;;;;;5069865;28;19913;-84
2023/07/08 00:51:32;;;;;;;;;;;20.50;99.90;;;;;;5078846;28;20277;-83
2023/07/08 00:53:58;;;;;;;;;;;20.30;99.90;;;;;;5074978;28;19917;-82
2023/07/08 00:56:30;;;;;;;;;;;20.30;99.90;;;;;;5068676;28;20562;-82
2023/07/08 00:58:58;;;;;;;;;;;20.50;99.90;;;;;;5080985;28;19913;-82
2023/07/08 01:01:25;;;;;;;;;;;20.30;99.90;;;;;;5092502;28;19931;-83
2023/07/08 01:03:54;;;;;;;;;;;20.40;99.90;;;;;;5084660;28;19917;-83
2023/07/08 01:06:20;;;;;;;;;;;20.40;99.90;;;;;;5071951;28;20263;-83
2023/07/08 01:08:47;;;;;;;;;;;20.40;99.90;;;;;;5073122;28;20266;-84
2023/07/08 01:11:13;;;;;;;;;;;20.40;99.90;;;;;;5073069;28;20340;-83
2023/07/08 01:13:41;;;;;;;;;;;20.50;99.90;;;;;;5058733;28;19916;-84
2023/07/08 01:16:07;;;;;;;;;;;20.60;99.90;;;;;;5076378;28;19995;-85
2023/07/08 01:18:34;;;;;;;;;;;20.40;99.90;;;;;;5075840;28;19909;-82
2023/07/08 01:21:01;;;;;;;;;;;20.60;99.90;;;;;;5077705;28;19963;-84
2023/07/08 01:23:27;;;;;;;;;;;20.70;99.90;;;;;;5075502;28;19931;-83
2023/07/08 01:25:53;;;;;;;;;;;20.50;99.90;;;;;;5079078;28;19908;-83
2023/07/08 01:28:19;;;;;;;;;;;20.50;99.90;;;;;;5073045;28;19919;-83
2023/07/08 01:30:45;;;;;;;;;;;20.50;99.90;;;;;;5084779;28;19940;-82
2023/07/08 01:33:24;;;;;;;;;;;20.50;99.90;;;;;;5075624;28;19916;-83
2023/07/08 01:35:51;;;;;;;;;;;20.70;99.90;;;;;;5073883;28;19919;-84
2023/07/08 01:38:23;;;;;;;;;;;20.60;99.90;;;;;;5077110;28;20007;-83
2023/07/08 01:40:56;;;;;;;;;;;20.50;99.90;;;;;;5078283;28;19912;-83
2023/07/08 01:43:22;;;;;;;;;;;20.50;99.90;;;;;;5058738;28;19915;-81
2023/07/08 01:45:48;;;;;;;;;;;20.50;99.90;;;;;;5074821;28;19944;-84
2023/07/08 01:48:15;;;;;;;;;;;20.70;99.90;;;;;;5088760;28;19962;-82
2023/07/08 01:50:45;;;;;;;;;;;20.70;99.90;;;;;;5080516;28;19931;-83
2023/07/08 01:53:14;;;;;;;;;;;20.50;99.90;;;;;;5086817;28;20009;-81
2023/07/08 01:55:39;;;;;;;;;;;20.60;99.90;;;;;;5080866;28;19979;-83
2023/07/08 01:58:05;;;;;;;;;;;20.60;99.90;;;;;;5076502;28;19916;-83
2023/07/08 02:00:31;;;;;;;;;;;20.60;99.90;;;;;;5084995;28;19927;-82
2023/07/08 02:02:56;;;;;;;;;;;20.70;99.90;;;;;;5063818;28;19909;-82
2023/07/08 02:05:23;;;;;;;;;;;20.70;99.90;;;;;;5070613;28;20354;-82
2023/07/08 02:07:48;;;;;;;;;;;20.70;99.90;;;;;;5079707;28;19913;-83
2023/07/08 02:10:14;;;;;;;;;;;20.70;99.90;;;;;;5072373;28;19923;-82
2023/07/08 02:12:40;;;;;;;;;;;20.90;99.90;;;;;;5079763;28;19917;-83
2023/07/08 02:15:06;;;;;;;;;;;20.80;99.90;;;;;;5078568;28;19913;-82
2023/07/08 02:17:31;;;;;;;;;;;20.80;99.90;;;;;;5076138;28;19914;-84
2023/07/08 02:19:57;;;;;;;;;;;20.80;99.90;;;;;;5077601;28;19908;-82
2023/07/08 02:22:23;;;;;;;;;;;20.80;99.90;;;;;;5071397;28;20020;-82
2023/07/08 02:24:49;;;;;;;;;;;20.80;99.90;;;;;;5073967;28;19920;-83
2023/07/08 02:27:15;;;;;;;;;;;20.80;99.90;;;;;;5056781;28;19909;-83
2023/07/08 02:29:40;;;;;;;;;;;20.70;99.90;;;;;;5074402;28;19977;-83
2023/07/08 02:32:06;;;;;;;;;;;20.70;99.90;;;;;;5072157;28;19917;-82
2023/07/08 02:34:32;;;;;;;;;;;20.80;99.90;;;;;;5076571;28;19915;-82
2023/07/08 02:36:58;;;;;;;;;;;20.70;99.90;;;;;;5071796;28;19952;-82
2023/07/08 02:39:23;;;;;;;;;;;20.70;99.90;;;;;;5073657;28;19919;-81
2023/07/08 02:41:49;;;;;;;;;;;20.70;99.90;;;;;;5065628;28;19921;-83
2023/07/08 02:44:15;;;;;;;;;;;20.80;99.90;;;;;;5073115;28;19908;-83
2023/07/08 02:46:40;;;;;;;;;;;20.60;99.90;;;;;;5057346;28;20340;-81
2023/07/08 02:49:06;;;;;;;;;;;20.70;99.90;;;;;;5074411;28;19916;-82
2023/07/08 02:51:32;;;;;;;;;;;20.90;99.90;;;;;;5065744;28;20034;-81
2023/07/08 02:53:58;;;;;;;;;;;20.70;99.90;;;;;;5077935;28;20354;-80
2023/07/08 02:56:26;;;;;;;;;;;20.90;99.90;;;;;;5064600;28;19912;-81
2023/07/08 02:58:52;;;;;;;;;;;21.00;99.90;;;;;;5074325;28;20015;-81
2023/07/08 03:01:17;;;;;;;;;;;20.80;99.90;;;;;;5072515;28;19951;-81
2023/07/08 03:03:46;;;;;;;;;;;20.80;99.90;;;;;;5078452;28;19935;-80
2023/07/08 03:06:13;;;;;;;;;;;20.90;99.90;;;;;;5073877;28;20394;-79
2023/07/08 03:08:38;;;;;;;;;;;20.90;99.90;;;;;;5072561;28;19915;-81
2023/07/08 03:11:06;;;;;;;;;;;21.00;99.90;;;;;;5054370;28;19980;-82
2023/07/08 03:13:32;;;;;;;;;;;21.00;99.90;;;;;;5081302;28;19924;-80
2023/07/08 03:15:59;;;;;;;;;;;20.80;99.90;;;;;;5083901;28;19912;-81
2023/07/08 03:18:26;;;;;;;;;;;20.80;99.90;;;;;;5076111;28;20019;-81
2023/07/08 03:20:52;;;;;;;;;;;20.80;99.90;;;;;;5073432;28;20320;-81
2023/07/08 03:23:18;;;;;;;;;;;20.80;99.90;;;;;;5056093;28;19915;-82
2023/07/08 03:25:44;;;;;;;;;;;20.80;99.90;;;;;;5073468;28;19995;-81
2023/07/08 03:28:14;;;;;;;;;;;20.90;99.90;;;;;;5072805;28;20023;-81
2023/07/08 03:30:41;;;;;;;;;;;21.00;99.90;;;;;;5075578;28;19908;-82
2023/07/08 03:33:07;;;;;;;;;;;21.10;99.90;;;;;;5068548;28;19977;-81
2023/07/08 03:35:32;;;;;;;;;;;21.50;99.90;;;;;;5080579;28;20319;-81
2023/07/08 03:37:58;;;;;;;;;;;21.40;99.30;;;;;;5073909;28;20016;-82
2023/07/08 03:40:24;;;;;;;;;;;21.40;99.10;;;;;;5072297;28;20382;-82
2023/07/08 03:42:50;;;;;;;;;;;21.60;99.00;;;;;;5074235;28;19912;-83
2023/07/08 03:45:15;;;;;;;;;;;21.50;98.90;;;;;;5088491;28;19954;-82
2023/07/08 03:47:41;;;;;;;;;;;21.40;98.90;;;;;;5087301;28;19909;-81
2023/07/08 03:50:13;;;;;;;;;;;21.40;99.00;;;;;;5091259;28;19962;-83
2023/07/08 03:52:38;;;;;;;;;;;21.80;99.10;;;;;;5094711;28;19962;-83
2023/07/08 03:55:05;;;;;;;;;;;21.70;99.00;;;;;;5089977;28;19912;-82
2023/07/08 03:57:30;;;;;;;;;;;21.90;98.70;;;;;;5067148;28;19975;-84
2023/07/08 03:59:56;;;;;;;;;;;21.80;98.50;;;;;;5084015;28;19909;-84
2023/07/08 04:02:22;;;;;;;;;;;21.90;97.70;;;;;;5083671;28;19913;-82
2023/07/08 04:04:47;;;;;;;;;;;22.00;97.90;;;;;;5077712;28;19908;-81
2023/07/08 04:07:13;;;;;;;;;;;22.10;97.80;;;;;;5060717;28;19951;-81
2023/07/08 04:09:39;;;;;;;;;;;22.20;97.60;;;;;;5075438;28;19912;-81
2023/07/08 04:12:05;;;;;;;;;;;22.10;97.20;;;;;;5058102;28;19920;-82
2023/07/08 04:14:30;;;;;;;;;;;22.10;97.10;;;;;;5077732;28;20377;-82
2023/07/08 04:16:57;;;;;;;;;;;22.10;97.20;;;;;;5054073;28;20366;-82
2023/07/08 04:19:23;;;;;;;;;;;22.20;97.20;;;;;;5079687;28;20342;-82
2023/07/08 04:21:49;;;;;;;;;;;22.10;97.10;;;;;;5085292;28;19909;-82
2023/07/08 04:24:16;;;;;;;;;;;21.90;97.00;;;;;;5082623;28;19916;-83
2023/07/08 04:26:42;;;;;;;;;;;22.00;97.10;;;;;;5091460;28;19951;-84
2023/07/08 04:29:15;;;;;;;;;;;22.10;97.10;;;;;;5095842;28;19909;-82
2023/07/08 04:31:41;;;;;;;;;;;22.10;96.90;;;;;;5091348;28;19916;-83
2023/07/08 04:34:07;;;;;;;;;;;22.10;96.70;;;;;;5082523;28;19923;-83
2023/07/08 04:36:34;;;;;;;;;;;22.20;96.60;;;;;;5053890;28;20002;-83
2023/07/08 04:39:00;;;;;;;;;;;22.30;96.60;;;;;;5071757;28;19908;-82
2023/07/08 04:41:26;;;;;;;;;;;22.10;96.30;;;;;;5087398;28;19912;-84
2023/07/08 04:43:53;;;;;;;;;;;22.20;96.40;;;;;;5081684;28;19934;-84
2023/07/08 04:46:27;;;;;;;;;;;22.20;96.10;;;;;;5061143;28;19935;-82
2023/07/08 04:48:53;;;;;;;;;;;22.00;95.90;;;;;;5077992;28;20001;-83
2023/07/08 04:51:19;;;;;;;;;;;21.90;96.00;;;;;;5076725;28;19912;-83
2023/07/08 04:53:45;;;;;;;;;;;21.90;96.20;;;;;;5051071;28;19917;-84
2023/07/08 04:56:10;;;;;;;;;;;21.60;96.30;;;;;;5068809;28;19915;-83
2023/07/08 04:58:36;;;;;;;;;;;21.50;96.50;;;;;;5057099;28;19916;-85
2023/07/08 05:01:02;;;;;;;;;;;21.50;96.60;;;;;;5066864;28;19909;-83
2023/07/08 05:03:27;;;;;;;;;;;21.30;96.60;;;;;;5061325;28;19916;-83
2023/07/08 05:05:53;;;;;;;;;;;21.30;96.60;;;;;;5079735;28;19947;-84
2023/07/08 05:08:19;;;;;;;;;;;21.30;96.70;;;;;;5067335;28;19912;-82
2023/07/08 05:10:44;;;;;;;;;;;21.10;96.60;;;;;;5087473;28;19924;-83
2023/07/08 05:13:12;;;;;;;;;;;20.90;96.60;;;;;;5069482;28;21637;-82
2023/07/08 05:15:38;;;;;;;;;;;20.90;96.80;;;;;;5061319;28;19913;-84
2023/07/08 05:18:04;;;;;;;;;;;21.00;97.00;;;;;;5075784;28;20109;-82
2023/07/08 05:20:30;;;;;;;;;;;20.90;97.00;;;;;;5062485;28;19909;-82
2023/07/08 05:22:56;;;;;;;;;;;20.80;97.00;;;;;;5061556;28;19909;-82
2023/07/08 05:25:22;;;;;;;;;;;20.80;97.10;;;;;;5057213;28;19935;-82
2023/07/08 05:27:47;;;;;;;;;;;20.90;97.20;;;;;;5078741;28;19934;-82
2023/07/08 05:30:15;;;;;;;;;;;21.10;97.10;;;;;;5074650;28;20015;-82
2023/07/08 05:32:41;;;;;;;;;;;21.00;97.10;;;;;;5071437;28;19916;-83
2023/07/08 05:35:07;;;;;;;;;;;21.20;96.80;;;;;;5065385;28;20254;-84
2023/07/08 05:37:33;;;;;;;;;;;21.40;96.60;;;;;;5074063;28;19950;-83
2023/07/08 05:40:01;;;;;;;;;;;21.30;96.50;;;;;;5065238;28;19912;-83
2023/07/08 05:42:27;;;;;;;;;;;21.30;96.50;;;;;;5076467;28;19928;-83
2023/07/08 05:44:54;;;;;;;;;;;21.50;96.50;;;;;;5076220;28;19908;-83
2023/07/08 05:47:21;;;;;;;;;;;21.50;96.00;;;;;;5078809;28;20366;-83
2023/07/08 05:49:47;;;;;;;;;;;21.60;96.00;;;;;;5075372;28;20026;-84
2023/07/08 05:52:12;;;;;;;;;;;22.00;95.90;;;;;;5088419;28;20366;-84
2023/07/08 05:54:38;;;;;;;;;;;22.00;95.70;;;;;;5085363;28;19916;-84
2023/07/08 05:57:05;;;;;;;;;;;22.20;95.40;;;;;;5075348;28;19931;-84
2023/07/08 05:59:31;;;;;;;;;;;22.20;95.20;;;;;;5080577;28;19916;-84
2023/07/08 06:01:56;;;;;;;;;;;22.30;95.10;;;;;;5070401;28;19909;-83
2023/07/08 06:04:22;;;;;;;;;;;22.50;95.00;;;;;;5066657;28;20258;-84
2023/07/08 06:06:48;;;;;;;;;;;22.50;94.90;;;;;;5074044;28;19975;-84
2023/07/08 06:09:14;;;;;;;;;;;22.60;94.50;;;;;;5071097;28;19913;-83
2023/07/08 06:11:39;;;;;;;;;;;22.60;94.00;;;;;;5074393;28;19920;-83
2023/07/08 06:14:05;;;;;;;;;;;22.20;93.80;;;;;;5074368;28;20328;-84
2023/07/08 06:16:31;;;;;;;;;;;22.30;94.10;;;;;;5072845;28;20347;-85
2023/07/08 06:18:57;;;;;;;;;;;22.10;94.20;;;;;;5070534;28;19909;-84
2023/07/08 06:21:24;;;;;;;;;;;22.20;94.20;;;;;;5077061;28;19909;-82
2023/07/08 06:23:49;;;;;;;;;;;22.20;94.00;;;;;;5074671;28;19920;-84
2023/07/08 06:26:15;;;;;;;;;;;22.10;94.10;;;;;;5075423;28;20366;-82
2023/07/08 06:28:41;;;;;;;;;;;22.00;94.00;;;;;;5069168;28;19915;-84
2023/07/08 06:31:07;;;;;;;;;;;22.00;94.20;;;;;;5053464;28;19962;-84
2023/07/08 06:33:32;;;;;;;;;;;22.10;94.20;;;;;;5070196;28;19939;-85
2023/07/08 06:35:58;;;;;;;;;;;22.00;94.00;;;;;;5075262;28;19962;-84
2023/07/08 06:38:24;;;;;;;;;;;22.00;93.80;;;;;;5074002;28;19917;-83
2023/07/08 06:40:49;;;;;;;;;;;22.00;93.80;;;;;;5063791;28;19913;-84
2023/07/08 06:43:15;;;;;;;;;;;22.00;93.90;;;;;;5072928;28;19957;-82
2023/07/08 06:45:41;;;;;;;;;;;22.20;93.80;;;;;;5075868;28;20457;-84
2023/07/08 06:48:06;;;;;;;;;;;22.10;93.40;;;;;;5060625;28;19913;-83
2023/07/08 06:50:32;;;;;;;;;;;22.20;93.40;;;;;;5075018;28;19913;-84
2023/07/08 06:52:58;;;;;;;;;;;22.20;93.40;;;;;;5065258;28;19931;-83
2023/07/08 06:55:24;;;;;;;;;;;22.30;93.20;;;;;;5074260;28;19916;-84
2023/07/08 06:57:50;;;;;;;;;;;22.30;93.30;;;;;;5074007;28;19908;-85
2023/07/08 07:00:16;;;;;;;;;;;22.10;93.20;;;;;;5074247;28;19954;-84
2023/07/08 07:02:42;;;;;;;;;;;22.10;93.40;;;;;;5071244;28;19924;-82
2023/07/08 07:05:07;;;;;;;;;;;22.20;93.60;;;;;;5072994;28;20263;-83
2023/07/08 07:07:34;;;;;;;;;;;22.00;93.70;;;;;;5078987;28;19916;-84
2023/07/08 07:10:00;;;;;;;;;;;22.10;94.10;;;;;;5086482;28;19920;-84
2023/07/08 07:12:26;;;;;;;;;;;21.90;93.90;;;;;;5069697;28;19925;-90
2023/07/08 07:14:52;;;;;;;;;;;21.80;93.90;;;;;;5084894;28;19908;-85
2023/07/08 07:17:19;;;;;;;;;;;21.90;94.20;;;;;;5085913;28;19912;-86
2023/07/08 07:19:44;;;;;;;;;;;21.70;94.40;;;;;;5083774;28;19990;-85
2023/07/08 07:22:10;;;;;;;;;;;21.70;94.50;;;;;;5073987;28;20336;-83
2023/07/08 07:24:36;;;;;;;;;;;21.70;94.60;;;;;;5086936;28;19915;-84
2023/07/08 07:27:01;;;;;;;;;;;21.70;94.70;;;;;;5066282;28;19916;-85
2023/07/08 07:29:37;;;;;;;;;;;21.60;94.80;;;;;;5082374;28;19935;-85
2023/07/08 07:32:03;;;;;;;;;;;21.80;94.90;;;;;;5077227;28;19912;-85
2023/07/08 07:34:29;;;;;;;;;;;21.70;94.60;;;;;;5093113;28;19946;-83
2023/07/08 07:36:55;;;;;;;;;;;21.80;95.00;;;;;;5090503;28;19994;-84
2023/07/08 07:39:21;;;;;;;;;;;22.00;94.60;;;;;;5091638;28;19909;-85
2023/07/08 07:41:47;;;;;;;;;;;22.00;94.50;;;;;;5088903;28;19909;-84
2023/07/08 07:44:12;;;;;;;;;;;22.20;94.50;;;;;;5093338;28;19908;-84
2023/07/08 07:46:38;;;;;;;;;;;22.10;94.20;;;;;;5084146;28;19912;-84
2023/07/08 07:49:04;;;;;;;;;;;22.20;94.30;;;;;;5073235;28;20011;-84
2023/07/08 07:51:29;;;;;;;;;;;22.20;94.30;;;;;;5081494;28;19916;-83
2023/07/08 07:53:55;;;;;;;;;;;22.20;93.90;;;;;;5059885;28;19917;-83
2023/07/08 07:56:21;;;;;;;;;;;22.10;93.20;;;;;;5061214;28;19954;-84
2023/07/08 07:58:46;;;;;;;;;;;22.20;93.30;;;;;;5075778;28;19966;-80
2023/07/08 08:01:13;;;;;;;;;;;22.10;93.20;;;;;;5074334;28;19913;-82
2023/07/08 08:03:39;;;;;;;;;;;22.10;93.10;;;;;;5073046;28;19920;-81
2023/07/08 08:06:04;;;;;;;;;;;22.00;93.10;;;;;;5075253;28;19995;-81
2023/07/08 08:08:30;;;;;;;;;;;22.00;93.30;;;;;;5075639;28;19975;-81
2023/07/08 08:10:56;;;;;;;;;;;22.10;93.30;;;;;;5074477;28;19921;-80
2023/07/08 08:13:22;;;;;;;;;;;22.00;93.20;;;;;;5076122;28;19920;-82
2023/07/08 08:15:48;;;;;;;;;;;22.00;93.10;;;;;;5074594;28;20676;-78
2023/07/08 08:18:14;;;;;;;;;;;22.00;92.60;;;;;;5077953;28;20054;-88
2023/07/08 08:20:40;;;;;;;;;;;22.00;92.40;;;;;;5064605;28;19908;-87
2023/07/08 08:23:06;;;;;;;;;;;21.90;92.40;;;;;;5042269;28;20424;-89
2023/07/08 08:25:32;;;;;;;;;;;22.00;92.40;;;;;;5051162;28;19929;-85
2023/07/08 08:27:58;;;;;;;;;;;22.00;92.60;;;;;;5043564;28;19914;-84
2023/07/08 08:30:23;;;;;;;;;;;22.00;92.50;;;;;;5025755;28;19989;-86
2023/07/08 08:32:49;;;;;;;;;;;22.10;92.40;;;;;;5049254;28;20004;-84
2023/07/08 08:35:15;;;;;;;;;;;22.10;92.30;;;;;;5045716;28;19913;-84
2023/07/08 08:37:41;;;;;;;;;;;22.20;92.10;;;;;;5037465;28;19962;-84
2023/07/08 08:40:11;;;;;;;;;;;22.20;91.90;;;;;;5037014;28;20389;-86
2023/07/08 08:42:42;;;;;;;;;;;22.40;91.90;;;;;;5038246;28;19923;-84
2023/07/08 08:45:10;;;;;;;;;;;22.40;91.70;;;;;;5035137;28;19909;-83
2023/07/08 08:47:41;;;;;;;;;;;22.40;91.40;;;;;;5055857;28;19913;-82
2023/07/08 08:50:18;;;;;;;;;;;22.30;91.50;;;;;;5047442;28;19971;-86
2023/07/08 08:52:44;;;;;;;;;;;22.20;91.60;;;;;;5036468;28;20051;-85
2023/07/08 08:55:14;;;;;;;;;;;22.20;91.70;;;;;;5077069;28;19952;-82
2023/07/08 08:57:46;;;;;;;;;;;22.00;91.90;;;;;;5084332;28;19916;-83
2023/07/08 09:00:15;;;;;;;;;;;22.10;92.20;;;;;;5076759;28;20253;-84
2023/07/08 09:02:59;;;;;;;;;;;22.30;92.30;;;;;;5077591;28;19912;-82
2023/07/08 09:05:25;;;;;;;;;;;22.90;92.20;;;;;;5071020;28;20356;-82
2023/07/08 09:08:03;;;;;;;;;;;23.30;91.40;;;;;;5068959;28;20015;-82
2023/07/08 09:10:29;;;;;;;;;;;23.40;90.50;;;;;;5056747;28;19917;-83
2023/07/08 09:12:56;;;;;;;;;;;23.50;89.90;;;;;;5076444;28;20274;-81
2023/07/08 09:15:22;;;;;;;;;;;23.70;90.20;;;;;;5075920;28;19924;-82
2023/07/08 09:17:49;;;;;;;;;;;24.70;87.80;;;;;;5082940;28;19920;-83
2023/07/08 09:20:23;;;;;;;;;;;25.10;82.60;;;;;;5086395;28;20390;-82
2023/07/08 09:23:03;;;;;;;;;;;24.90;81.10;;;;;;5068079;28;19932;-84
2023/07/08 09:25:37;;;;;;;;;;;24.40;81.30;;;;;;5084609;28;19982;-84
2023/07/08 09:28:03;;;;;;;;;;;23.90;82.90;;;;;;5082077;28;19916;-83
2023/07/08 09:30:30;;;;;;;;;;;23.70;84.20;;;;;;5069567;28;19909;-86
2023/07/08 09:32:56;;;;;;;;;;;23.60;84.60;;;;;;5066661;28;19948;-85
2023/07/08 09:35:25;;;;;;;;;;;23.60;84.00;;;;;;5101730;28;19912;-85
2023/07/08 09:37:51;;;;;;;;;;;23.70;83.20;;;;;;5092148;28;20010;-82
2023/07/08 09:40:22;;;;;;;;;;;24.40;82.90;;;;;;5093355;28;19935;-85
2023/07/08 09:42:51;;;;;;;;;;;24.80;77.90;;;;;;5083798;28;19909;-82
2023/07/08 09:45:19;;;;;;;;;;;25.10;77.60;;;;;;5084334;28;19912;-85
2023/07/08 09:47:45;;;;;;;;;;;26.50;78.20;;;;;;5069069;28;19919;-86
2023/07/08 09:50:18;;;;;;;;;;;27.50;72.80;;;;;;5072083;28;19945;-85
2023/07/08 09:52:43;;;;;;;;;;;27.40;70.80;;;;;;5061694;28;20319;-84
2023/07/08 09:55:12;;;;;;;;;;;27.30;70.70;;;;;;5078473;28;19955;-82
2023/07/08 09:57:39;;;;;;;;;;;27.20;69.80;;;;;;5079756;28;19909;-82
2023/07/08 10:00:11;;;;;;;;;;;27.10;70.00;;;;;;5075227;28;19912;-82
2023/07/08 10:02:52;;;;;;;;;;;26.80;69.40;;;;;;5072297;28;19908;-85
2023/07/08 10:05:21;;;;;;;;;;;26.30;69.40;;;;;;5054905;28;19917;-85
2023/07/08 10:07:47;;;;;;;;;;;25.90;70.60;;;;;;5058978;28;19909;-84
2023/07/08 10:10:16;;;;;;;;;;;25.60;71.30;;;;;;5057847;28;19913;-82
2023/07/08 10:12:45;;;;;;;;;;;25.30;71.80;;;;;;5085704;28;19987;-81
2023/07/08 10:15:20;;;;;;;;;;;25.30;72.80;;;;;;5073032;28;19912;-83
2023/07/08 10:17:45;;;;;;;;;;;25.70;71.30;;;;;;5078018;28;20396;-83
2023/07/08 10:20:12;;;;;;;;;;;26.50;69.40;;;;;;5060418;28;19909;-85
2023/07/08 10:22:42;;;;;;;;;;;27.20;66.60;;;;;;5080056;28;19909;-85
2023/07/08 10:25:30;;;;;;;;;;;28.10;65.20;;;;;;5080453;28;19915;-84
2023/07/08 10:27:57;;;;;;;;;;;29.30;61.20;;;;;;5066774;28;19923;-85
2023/07/08 10:30:38;;;;;;;;;;;29.10;60.40;;;;;;5086564;28;19932;-84
2023/07/08 10:33:08;;;;;;;;;;;29.10;60.20;;;;;;5071970;28;19920;-86
2023/07/08 10:35:35;;;;;;;;;;;29.20;59.60;;;;;;5080373;28;19920;-85
2023/07/08 10:38:23;;;;;;;;;;;28.70;60.00;;;;;;5084805;28;19931;-85
2023/07/08 10:40:50;;;;;;;;;;;28.30;60.40;;;;;;5081357;28;19968;-86
2023/07/08 10:43:18;;;;;;;;;;;27.80;61.80;;;;;;5082665;28;19916;-82
2023/07/08 10:46:03;;;;;;;;;;;27.50;62.70;;;;;;5062285;28;19923;-85
2023/07/08 10:48:36;;;;;;;;;;;27.30;63.10;;;;;;5073536;28;19909;-85
2023/07/08 10:51:13;;;;;;;;;;;27.00;63.70;;;;;;5081961;28;19913;-84
2023/07/08 10:53:52;;;;;;;;;;;26.60;64.20;;;;;;5073796;28;19916;-82
2023/07/08 10:56:24;;;;;;;;;;;26.20;65.10;;;;;;5057543;28;19962;-83
2023/07/08 10:59:02;;;;;;;;;;;25.80;65.90;;;;;;5075476;28;20364;-85
2023/07/08 11:01:35;;;;;;;;;;;25.50;67.10;;;;;;5079214;28;19916;-87
2023/07/08 11:04:13;;;;;;;;;;;25.30;68.10;;;;;;5080213;28;20349;-87
2023/07/08 11:06:55;;;;;;;;;;;25.30;68.80;;;;;;5064037;28;19908;-84
2023/07/08 11:09:21;;;;;;;;;;;;;;;;;;5085166;28;19908;-84
2023/07/08 11:12:01;;;;;;;;;;;25.10;68.30;;;;;;5060911;28;19921;-85
2023/07/08 11:14:40;;;;;;;;;;;25.10;68.60;;;;;;5066809;28;19971;-84
2023/07/08 11:17:21;;;;;;;;;;;25.00;68.10;;;;;;5082188;28;20335;-84
2023/07/08 11:20:07;;;;;;;;;;;25.00;68.90;;;;;;5076195;28;19913;-87
2023/07/08 11:22:34;;;;;;;;;;;25.10;66.50;;;;;;5045759;28;20015;-86
2023/07/08 11:25:01;;;;;;;;;;;25.10;66.90;;;;;;5076328;28;19909;-84
2023/07/08 11:27:29;;;;;;;;;;;25.20;66.00;;;;;;5075960;28;19972;-84
2023/07/08 11:29:56;;;;;;;;;;;25.10;66.10;;;;;;5075455;28;19913;-83
2023/07/08 11:32:24;;;;;;;;;;;25.10;66.60;;;;;;5086680;28;19957;-85
2023/07/08 11:34:51;;;;;;;;;;;25.20;66.50;;;;;;5058033;28;19979;-85
2023/07/08 11:37:18;;;;;;;;;;;25.20;66.70;;;;;;5090039;28;19915;-89
2023/07/08 11:39:46;;;;;;;;;;;25.20;66.80;;;;;;5064674;28;19970;-87
2023/07/08 11:42:17;;;;;;;;;;;25.10;67.50;;;;;;5069060;28;19947;-88
2023/07/08 11:44:47;;;;;;;;;;;25.20;67.60;;;;;;5076973;28;19919;-86
2023/07/08 11:47:15;;;;;;;;;;;25.20;66.90;;;;;;5066583;28;20000;-85
2023/07/08 11:49:41;;;;;;;;;;;25.20;66.40;;;;;;5077854;28;19940;-85
2023/07/08 11:52:13;;;;;;;;;;;25.10;64.60;;;;;;5083679;28;19908;-83
2023/07/08 11:54:44;;;;;;;;;;;25.00;64.10;;;;;;5086825;28;19909;-85
2023/07/08 11:57:23;;;;;;;;;;;25.00;63.20;;;;;;5082621;28;19995;-87
2023/07/08 12:00:05;;;;;;;;;;;25.00;62.00;;;;;;5085262;28;19954;-87
2023/07/08 12:02:46;;;;;;;;;;;25.00;62.30;;;;;;5068371;28;19908;-89
2023/07/08 12:05:17;;;;;;;;;;;25.00;63.10;;;;;;5069559;28;19916;-88
2023/07/08 12:07:48;;;;;;;;;;;25.00;63.30;;;;;;5070401;28;19975;-88
2023/07/08 12:10:18;;;;;;;;;;;25.10;63.40;;;;;;5096239;28;19918;-88
2023/07/08 12:12:46;;;;;;;;;;;25.20;62.70;;;;;;5058481;28;19914;-89
2023/07/08 12:15:24;;;;;;;;;;;25.10;61.90;;;;;;5041728;28;19941;-88
2023/07/08 12:17:55;;;;;;;;;;;24.80;61.60;;;;;;5029905;28;19909;-89
2023/07/08 12:20:28;;;;;;;;;;;24.50;61.30;;;;;;5037911;28;20287;-88
2023/07/08 12:22:56;;;;;;;;;;;;;;;;;;5043842;28;19909;-85
2023/07/08 12:25:27;;;;;;;;;;;24.50;84.10;;;;;;5043469;28;19976;-88
2023/07/08 12:27:54;;;;;;;;;;;;;;;;;;5042855;28;19983;-87
2023/07/08 12:30:22;;;;;;;;;;;23.80;88.40;;;;;;5033848;28;19909;-86
2023/07/08 12:32:49;;;;;;;;;;;23.80;65.00;;;;;;5052607;28;19913;-87
2023/07/08 12:35:35;;;;;;;;;;;23.70;65.60;;;;;;5033281;28;20406;-90
2023/07/08 12:38:01;;;;;;;;;;;;;;;;;;5034737;28;19962;-87
2023/07/08 12:40:29;;;;;;;;;;;;;;;;;;5012817;28;20018;-86
2023/07/08 12:42:55;;;;;;;;;;;;;;;;;;5030635;28;19907;-82
2023/07/08 12:45:22;;;;;;;;;;;23.50;71.00;;;;;;5049342;28;19909;-82
2023/07/08 12:47:48;;;;;;;;;;;23.80;67.30;;;;;;5059374;28;19915;-84
2023/07/08 12:50:14;;;;;;;;;;;23.80;67.40;;;;;;5056630;28;19960;-82
2023/07/08 12:52:40;;;;;;;;;;;23.90;67.20;;;;;;5056115;28;19920;-84
2023/07/08 12:55:08;;;;;;;;;;;23.90;67.90;;;;;;5055903;28;19939;-82
2023/07/08 12:57:35;;;;;;;;;;;24.00;67.50;;;;;;5055617;28;19963;-82
2023/07/08 13:00:01;;;;;;;;;;;24.10;67.50;;;;;;5063739;28;19913;-83
2023/07/08 13:02:28;;;;;;;;;;;24.10;67.70;;;;;;5081982;28;20384;-87
2023/07/08 13:04:56;;;;;;;;;;;24.40;67.50;;;;;;5066402;28;19917;-85
2023/07/08 13:07:28;;;;;;;;;;;24.50;67.20;;;;;;5074375;28;19909;-84
2023/07/08 13:09:53;;;;;;;;;;;24.60;66.80;;;;;;5075775;28;19912;-84
2023/07/08 13:12:23;;;;;;;;;;;24.80;66.80;;;;;;5076897;28;19951;-85
2023/07/08 13:14:49;;;;;;;;;;;24.90;66.60;;;;;;5047935;28;20329;-86
2023/07/08 13:17:15;;;;;;;;;;;25.00;66.10;;;;;;5076345;28;20358;-84
2023/07/08 13:19:42;;;;;;;;;;;24.80;66.00;;;;;;5079526;28;19916;-82
2023/07/08 13:22:14;;;;;;;;;;;24.70;66.00;;;;;;5079036;28;19915;-81
2023/07/08 13:24:41;;;;;;;;;;;24.70;66.50;;;;;;5070481;28;20332;-82
2023/07/08 13:27:09;;;;;;;;;;;24.60;65.90;;;;;;5058791;28;19909;-86
2023/07/08 13:29:35;;;;;;;;;;;24.50;66.00;;;;;;5087031;28;19919;-82
2023/07/08 13:32:05;;;;;;;;;;;24.40;66.40;;;;;;5088622;28;19908;-84
2023/07/08 13:34:32;;;;;;;;;;;24.40;66.50;;;;;;5077031;28;19921;-82
2023/07/08 13:36:57;;;;;;;;;;;24.40;66.20;;;;;;5080378;28;19913;-83
2023/07/08 13:39:29;;;;;;;;;;;24.40;66.20;;;;;;5077263;28;20125;-83
2023/07/08 13:41:55;;;;;;;;;;;24.20;65.90;;;;;;5077924;28;19936;-83
2023/07/08 13:44:21;;;;;;;;;;;24.20;66.10;;;;;;5073504;28;19930;-84
2023/07/08 13:46:49;;;;;;;;;;;24.50;65.70;;;;;;5079794;28;19917;-83
2023/07/08 13:49:19;;;;;;;;;;;24.80;65.00;;;;;;5082671;28;19938;-84
2023/07/08 13:51:48;;;;;;;;;;;25.10;63.80;;;;;;5081535;28;20362;-88
2023/07/08 13:54:22;;;;;;;;;;;25.30;62.10;;;;;;5055206;28;19942;-88
2023/07/08 13:56:48;;;;;;;;;;;25.50;62.50;;;;;;5055934;28;19944;-82
2023/07/08 13:59:23;;;;;;;;;;;26.30;60.50;;;;;;5080336;28;19983;-83
2023/07/08 14:01:51;;;;;;;;;;;26.90;59.60;;;;;;5078518;28;19912;-84
2023/07/08 14:04:19;;;;;;;;;;;26.70;58.40;;;;;;5059289;28;19987;-85
2023/07/08 14:06:45;;;;;;;;;;;26.80;58.50;;;;;;5080258;28;19931;-84
2023/07/08 14:09:16;;;;;;;;;;;26.90;58.40;;;;;;5079556;28;19908;-83
2023/07/08 14:11:41;;;;;;;;;;;26.50;58.10;;;;;;5060117;28;19935;-83
2023/07/08 14:14:08;;;;;;;;;;;26.00;57.80;;;;;;5076667;28;19916;-83
2023/07/08 14:16:35;;;;;;;;;;;25.70;58.70;;;;;;5077873;28;20409;-87
2023/07/08 14:19:03;;;;;;;;;;;25.40;59.00;;;;;;5081435;28;19909;-81
2023/07/08 14:21:35;;;;;;;;;;;25.20;59.40;;;;;;5078834;28;19995;-84
2023/07/08 14:24:02;;;;;;;;;;;25.00;59.80;;;;;;5079292;28;20266;-82